createdAt,value
2018-12-08T00:01:26.444Z,99683.40
2018-12-08T00:03:54.203Z,99681.66
2018-12-08T00:06:21.835Z,99690.83
2018-12-08T00:08:49.480Z,99694.77
2018-12-08T00:11:17.229Z,99702.17
2018-12-08T00:13:44.824Z,99700.00
2018-12-08T00:16:12.469Z,99709.17
2018-12-08T00:18:40.099Z,99707.47
2018-12-08T00:21:07.738Z,99711.87
2018-12-08T00:23:35.406Z,99706.69
2018-12-08T00:26:03.004Z,99706.69
2018-12-08T00:28:30.689Z,99718.00
2018-12-08T00:31:09.635Z,99715.81
2018-12-08T00:33:37.473Z,99725.81
2018-12-08T00:36:05.070Z,99725.91
2018-12-08T00:38:32.669Z,99726.34
2018-12-08T00:41:00.304Z,99726.84
2018-12-08T00:43:27.894Z,99731.24
2018-12-08T00:45:55.550Z,99734.30
2018-12-08T00:48:23.141Z,99733.86
2018-12-08T00:50:50.795Z,99737.31
2018-12-08T00:53:18.417Z,99737.31
2018-12-08T00:55:46.010Z,99749.10
2018-12-08T00:58:13.593Z,99740.85
2018-12-08T01:00:41.180Z,99737.42
2018-12-08T01:03:08.882Z,99736.59
2018-12-08T01:05:36.478Z,99742.16
2018-12-08T01:08:04.125Z,99746.09
2018-12-08T01:10:31.764Z,99741.24
2018-12-08T01:12:59.335Z,99744.84
2018-12-08T01:15:26.951Z,99749.20
2018-12-08T01:17:54.658Z,99751.00
2018-12-08T01:20:22.245Z,99746.67
2018-12-08T01:22:49.841Z,99741.44
2018-12-08T01:25:17.735Z,99746.25
2018-12-08T01:27:45.333Z,99743.72
2018-12-08T01:30:13.010Z,99747.70
2018-12-08T01:32:40.584Z,99754.25
2018-12-08T01:35:08.088Z,99759.44
2018-12-08T01:37:35.681Z,99758.91
2018-12-08T01:40:03.315Z,99768.60
2018-12-08T01:42:30.948Z,99770.80
2018-12-08T01:44:58.555Z,99770.41
2018-12-08T01:47:26.215Z,99768.60
2018-12-08T01:49:55.927Z,99774.72
2018-12-08T01:52:23.566Z,99773.41
2018-12-08T01:54:51.250Z,99777.34
2018-12-08T01:57:18.879Z,99775.15
2018-12-08T01:59:46.496Z,99765.61
2018-12-08T02:02:14.148Z,99767.00
2018-12-08T02:04:41.773Z,99767.11
2018-12-08T02:07:09.401Z,99760.56
2018-12-08T02:09:37.069Z,99764.38
2018-12-08T02:12:04.695Z,99770.06
2018-12-08T02:14:32.330Z,99760.12
2018-12-08T02:16:59.952Z,99760.56
2018-12-08T02:19:27.645Z,99759.25
2018-12-08T02:21:55.330Z,99754.41
2018-12-08T02:24:22.930Z,99755.22
2018-12-08T02:26:50.563Z,99757.02
2018-12-08T02:29:18.175Z,99757.02
2018-12-08T02:31:45.819Z,99755.33
2018-12-08T02:34:13.660Z,99752.31
2018-12-08T02:36:41.239Z,99757.41
2018-12-08T02:39:08.869Z,99760.84
2018-12-08T02:41:36.505Z,99768.76
2018-12-08T02:44:04.069Z,99758.72
2018-12-08T02:46:31.704Z,99761.34
2018-12-08T02:48:59.307Z,99759.70
2018-12-08T02:51:26.921Z,99755.33
2018-12-08T02:53:54.656Z,99760.12
2018-12-08T02:56:22.264Z,99751.45
2018-12-08T02:58:49.918Z,99754.52
2018-12-08T03:01:17.558Z,99751.05
2018-12-08T03:03:45.321Z,99754.59
2018-12-08T03:06:12.943Z,99748.88
2018-12-08T03:08:40.618Z,99735.06
2018-12-08T03:11:08.320Z,99742.73
2018-12-08T03:13:35.982Z,99752.36
2018-12-08T03:16:03.624Z,99748.49
2018-12-08T03:18:31.203Z,99740.73
2018-12-08T03:20:58.851Z,99738.94
2018-12-08T03:23:26.451Z,99734.67
2018-12-08T03:25:54.079Z,99724.30
2018-12-08T03:28:21.641Z,99729.30
2018-12-08T03:30:49.241Z,99728.13
2018-12-08T03:33:17.019Z,99728.41
2018-12-08T03:35:44.666Z,99727.93
2018-12-08T03:38:12.276Z,99727.98
2018-12-08T03:40:39.897Z,99712.75
2018-12-08T03:43:07.472Z,99707.67
2018-12-08T03:45:35.076Z,99711.98
2018-12-08T03:48:02.697Z,99701.89
2018-12-08T03:50:30.299Z,99707.91
2018-12-08T03:52:57.973Z,99699.52
2018-12-08T03:55:25.554Z,99699.66
2018-12-08T03:57:53.122Z,99690.50
2018-12-08T04:00:20.843Z,99684.59
2018-12-08T04:02:48.460Z,99694.14
2018-12-08T04:05:16.068Z,99686.73
2018-12-08T04:07:43.827Z,99687.70
2018-12-08T04:10:11.669Z,99691.68
2018-12-08T04:12:39.323Z,99695.16
2018-12-08T04:15:07.150Z,99685.19
2018-12-08T04:17:34.801Z,99680.48
2018-12-08T04:20:02.435Z,99693.91
2018-12-08T04:22:30.087Z,99684.30
2018-12-08T04:24:57.713Z,99676.39
2018-12-08T04:27:25.340Z,99676.25
2018-12-08T04:29:52.945Z,99671.59
2018-12-08T04:32:20.542Z,99669.77
2018-12-08T04:34:48.279Z,99668.34
2018-12-08T04:37:15.867Z,99669.98
2018-12-08T04:39:43.476Z,99664.31
2018-12-08T04:42:11.228Z,99661.97
2018-12-08T04:44:38.873Z,99673.22
2018-12-08T04:47:06.587Z,99658.23
2018-12-08T04:49:34.345Z,99650.80
2018-12-08T04:52:01.963Z,99659.10
2018-12-08T04:54:29.574Z,99656.04
2018-12-08T04:56:57.326Z,99658.60
2018-12-08T04:59:24.924Z,99649.77
2018-12-08T05:01:52.588Z,99647.59
2018-12-08T05:04:20.270Z,99640.94
2018-12-08T05:06:48.042Z,99642.69
2018-12-08T05:09:15.619Z,99637.39
2018-12-08T05:11:43.306Z,99637.78
2018-12-08T05:14:10.904Z,99632.05
2018-12-08T05:16:38.560Z,99634.66
2018-12-08T05:19:06.263Z,99619.28
2018-12-08T05:21:33.910Z,99616.60
2018-12-08T05:24:01.567Z,99615.80
2018-12-08T05:26:29.217Z,99614.09
2018-12-08T05:28:56.845Z,99618.95
2018-12-08T05:31:24.534Z,99615.41
2018-12-08T05:33:52.199Z,99610.50
2018-12-08T05:36:19.788Z,99609.52
2018-12-08T05:38:47.380Z,99598.59
2018-12-08T05:41:15.022Z,99598.59
2018-12-08T05:43:42.607Z,99598.17
2018-12-08T05:46:10.354Z,99596.81
2018-12-08T05:48:37.969Z,99588.50
2018-12-08T05:51:05.604Z,99591.13
2018-12-08T05:53:33.283Z,99580.70
2018-12-08T05:56:00.874Z,99573.71
2018-12-08T05:58:28.455Z,99575.85
2018-12-08T06:00:56.124Z,99578.41
2018-12-08T06:03:23.703Z,99581.03
2018-12-08T06:05:51.384Z,99584.19
2018-12-08T06:08:19.010Z,99584.45
2018-12-08T06:10:46.626Z,99578.23
2018-12-08T06:13:14.282Z,99588.30
2018-12-08T06:15:41.879Z,99576.98
2018-12-08T06:18:09.604Z,99575.17
2018-12-08T06:20:37.185Z,99576.03
2018-12-08T06:23:04.775Z,99566.42
2018-12-08T06:25:34.807Z,99572.55
2018-12-08T06:28:14.810Z,99565.50
2018-12-08T06:30:42.419Z,99568.51
2018-12-08T06:33:09.989Z,99560.20
2018-12-08T06:35:37.648Z,99572.58
2018-12-08T06:38:05.292Z,99569.43
2018-12-08T06:40:32.959Z,99563.20
2018-12-08T06:43:00.608Z,99563.59
2018-12-08T06:45:28.260Z,99570.20
2018-12-08T06:47:55.897Z,99552.79
2018-12-08T06:50:23.547Z,99568.06
2018-12-08T06:52:51.167Z,99555.85
2018-12-08T06:55:18.791Z,99547.98
2018-12-08T06:57:46.407Z,99550.49
2018-12-08T07:00:14.062Z,99556.12
2018-12-08T07:02:41.700Z,99554.30
2018-12-08T07:05:09.377Z,99554.75
2018-12-08T07:07:37.011Z,99554.30
2018-12-08T07:10:04.776Z,99563.09
2018-12-08T07:12:32.565Z,99556.53
2018-12-08T07:15:00.193Z,99549.19
2018-12-08T07:17:27.805Z,99548.41
2018-12-08T07:19:55.393Z,99545.19
2018-12-08T07:22:23.017Z,99547.88
2018-12-08T07:24:50.604Z,99540.40
2018-12-08T07:27:18.233Z,99538.20
2018-12-08T07:29:45.904Z,99545.64
2018-12-08T07:32:13.546Z,99529.53
2018-12-08T07:34:41.189Z,99530.13
2018-12-08T07:37:08.860Z,99531.88
2018-12-08T07:39:36.733Z,99532.69
2018-12-08T07:42:04.369Z,99527.45
2018-12-08T07:44:32.002Z,99524.67
2018-12-08T07:46:59.623Z,99524.23
2018-12-08T07:49:27.175Z,99522.53
2018-12-08T07:51:54.783Z,99509.88
2018-12-08T07:54:22.427Z,99519.05
2018-12-08T07:56:50.181Z,99510.27
2018-12-08T07:59:17.802Z,99508.95
2018-12-08T08:01:45.421Z,99506.34
2018-12-08T08:04:13.094Z,99512.06
2018-12-08T08:06:40.831Z,99514.62
2018-12-08T08:09:08.470Z,99510.20
2018-12-08T08:11:36.134Z,99518.13
2018-12-08T08:14:03.757Z,99513.69
2018-12-08T08:16:31.328Z,99507.47
2018-12-08T08:18:58.950Z,99506.60
2018-12-08T08:21:26.605Z,99500.98
2018-12-08T08:23:54.218Z,99497.81
2018-12-08T08:26:21.815Z,99490.87
2018-12-08T08:28:49.461Z,99482.64
2018-12-08T08:31:17.045Z,99487.11
2018-12-08T08:33:44.678Z,99498.41
2018-12-08T08:36:12.330Z,99491.27
2018-12-08T08:38:39.931Z,99486.95
2018-12-08T08:41:07.554Z,99475.48
2018-12-08T08:43:35.159Z,99482.36
2018-12-08T08:46:02.814Z,99458.00
2018-12-08T08:48:30.467Z,99467.23
2018-12-08T08:50:58.078Z,99455.32
2018-12-08T08:53:30.280Z,99460.56
2018-12-08T08:55:57.920Z,99460.24
2018-12-08T08:58:25.530Z,99453.69
2018-12-08T09:00:53.152Z,99460.63
2018-12-08T09:03:20.837Z,99438.86
2018-12-08T09:05:48.467Z,99448.83
2018-12-08T09:08:16.058Z,99447.65
2018-12-08T09:10:43.687Z,99450.52
2018-12-08T09:13:11.291Z,99442.66
2018-12-08T09:15:38.925Z,99447.91
2018-12-08T09:18:06.531Z,99439.21
2018-12-08T09:20:34.113Z,99431.00
2018-12-08T09:23:01.854Z,99439.66
2018-12-08T09:25:29.477Z,99431.36
2018-12-08T09:27:57.076Z,99423.14
2018-12-08T09:30:24.809Z,99433.39
2018-12-08T09:32:52.424Z,99425.44
2018-12-08T09:35:20.028Z,99423.62
2018-12-08T09:37:47.665Z,99419.20
2018-12-08T09:40:15.248Z,99416.59
2018-12-08T09:42:42.887Z,99418.70
2018-12-08T09:45:10.701Z,99411.77
2018-12-08T09:47:38.335Z,99399.97
2018-12-08T09:50:06.883Z,99402.59
2018-12-08T09:52:34.517Z,99400.36
2018-12-08T09:55:02.130Z,99401.54
2018-12-08T09:57:29.753Z,99401.98
2018-12-08T09:59:57.382Z,99389.81
2018-12-08T10:02:25.006Z,99388.02
2018-12-08T10:04:52.729Z,99381.02
2018-12-08T10:07:20.336Z,99383.70
2018-12-08T10:09:47.982Z,99378.84
2018-12-08T10:12:15.631Z,99384.09
2018-12-08T10:14:43.218Z,99389.43
2018-12-08T10:17:10.857Z,99371.98
2018-12-08T10:19:38.473Z,99364.98
2018-12-08T10:22:06.130Z,99366.67
2018-12-08T10:24:33.802Z,99364.86
2018-12-08T10:27:01.445Z,99358.30
2018-12-08T10:29:29.092Z,99361.44
2018-12-08T10:31:56.767Z,99353.13
2018-12-08T10:34:24.531Z,99357.57
2018-12-08T10:36:52.134Z,99356.74
2018-12-08T10:39:19.765Z,99344.95
2018-12-08T10:41:47.439Z,99353.32
2018-12-08T10:44:15.054Z,99347.63
2018-12-08T10:46:42.770Z,99341.27
2018-12-08T10:49:10.335Z,99333.41
2018-12-08T10:51:37.942Z,99328.23
2018-12-08T10:54:05.581Z,99341.72
2018-12-08T10:56:33.219Z,99325.61
2018-12-08T10:59:00.818Z,99323.83
2018-12-08T11:01:34.044Z,99325.07
2018-12-08T11:04:01.692Z,99318.07
2018-12-08T11:06:29.339Z,99316.77
2018-12-08T11:08:57.003Z,99319.12
2018-12-08T11:11:24.637Z,99311.27
2018-12-08T11:13:52.327Z,99314.66
2018-12-08T11:16:19.959Z,99302.66
2018-12-08T11:18:47.555Z,99306.14
2018-12-08T11:21:15.191Z,99314.91
2018-12-08T11:23:42.778Z,99307.66
2018-12-08T11:26:10.401Z,99311.03
2018-12-08T11:28:38.046Z,99307.66
2018-12-08T11:31:05.703Z,99309.96
2018-12-08T11:33:33.334Z,99301.23
2018-12-08T11:36:00.967Z,99297.72
2018-12-08T11:38:28.977Z,99306.73
2018-12-08T11:40:56.552Z,99302.73
2018-12-08T11:43:24.146Z,99298.28
2018-12-08T11:45:51.806Z,99298.67
2018-12-08T11:48:19.368Z,99296.11
2018-12-08T11:50:47.129Z,99287.64
2018-12-08T11:53:14.744Z,99290.26
2018-12-08T11:55:42.356Z,99290.19
2018-12-08T11:58:10.020Z,99294.67
2018-12-08T12:00:38.308Z,99290.73
2018-12-08T12:03:05.887Z,99282.94
2018-12-08T12:05:33.564Z,99294.19
2018-12-08T12:08:01.233Z,99282.33
2018-12-08T12:10:28.920Z,99288.95
2018-12-08T12:12:56.624Z,99280.45
2018-12-08T12:15:24.264Z,99276.14
2018-12-08T12:17:51.868Z,99268.22
2018-12-08T12:20:19.508Z,99282.08
2018-12-08T12:22:47.148Z,99277.70
2018-12-08T12:25:15.178Z,99272.53
2018-12-08T12:27:43.173Z,99266.42
2018-12-08T12:30:10.889Z,99273.84
2018-12-08T12:32:38.529Z,99280.39
2018-12-08T12:35:06.186Z,99276.91
2018-12-08T12:37:33.896Z,99283.01
2018-12-08T12:40:01.569Z,99283.94
2018-12-08T12:42:29.364Z,99284.32
2018-12-08T12:44:57.034Z,99278.08
2018-12-08T12:47:24.641Z,99274.28
2018-12-08T12:49:52.340Z,99259.94
2018-12-08T12:52:19.987Z,99271.42
2018-12-08T12:54:47.651Z,99275.90
2018-12-08T12:57:15.295Z,99275.09
2018-12-08T12:59:42.912Z,99278.97
2018-12-08T13:02:10.703Z,99278.06
2018-12-08T13:04:38.344Z,99274.97
2018-12-08T13:07:05.944Z,99266.66
2018-12-08T13:09:34.508Z,99278.58
2018-12-08T13:12:02.337Z,99273.41
2018-12-08T13:14:29.983Z,99277.89
2018-12-08T13:16:58.783Z,99277.89
2018-12-08T13:19:26.449Z,99281.81
2018-12-08T13:21:54.472Z,99273.79
2018-12-08T13:24:22.274Z,99269.73
2018-12-08T13:26:49.962Z,99277.14
2018-12-08T13:29:17.607Z,99261.35
2018-12-08T13:31:45.443Z,99266.18
2018-12-08T13:34:23.123Z,99269.28
2018-12-08T13:36:50.857Z,99271.97
2018-12-08T13:39:18.546Z,99278.14
2018-12-08T13:41:46.239Z,99271.72
2018-12-08T13:44:24.020Z,99270.03
2018-12-08T13:46:51.675Z,99271.78
2018-12-08T13:49:19.794Z,99272.71
2018-12-08T13:51:47.525Z,99276.64
2018-12-08T13:54:54.560Z,99274.47
2018-12-08T13:57:22.162Z,99272.53
2018-12-08T13:59:54.959Z,99276.08
2018-12-08T14:02:22.690Z,99280.70
2018-12-08T14:04:50.552Z,99261.37
2018-12-08T14:07:18.181Z,99265.91
2018-12-08T14:09:45.915Z,99259.05
2018-12-08T14:12:13.545Z,99264.77
2018-12-08T14:14:41.188Z,99258.22
2018-12-08T14:17:08.829Z,99259.15
2018-12-08T14:19:43.000Z,99262.83
2018-12-08T14:22:10.707Z,99269.37
2018-12-08T14:24:38.356Z,99258.58
2018-12-08T14:27:06.172Z,99259.83
2018-12-08T14:29:33.792Z,99260.20
2018-12-08T14:32:01.799Z,99257.45
2018-12-08T14:34:29.492Z,99260.14
2018-12-08T14:36:57.103Z,99260.20
2018-12-08T14:39:24.749Z,99276.72
2018-12-08T14:41:52.335Z,99264.94
2018-12-08T14:44:20.175Z,99258.39
2018-12-08T14:46:47.803Z,99259.45
2018-12-08T14:49:15.525Z,99254.66
2018-12-08T14:51:43.177Z,99254.20
2018-12-08T14:54:18.510Z,99261.13
2018-12-08T14:56:46.237Z,99256.03
2018-12-08T14:59:13.889Z,99253.89
2018-12-08T15:01:41.532Z,99257.34
2018-12-08T15:04:09.214Z,99263.82
2018-12-08T15:06:36.906Z,99255.96
2018-12-08T15:09:06.379Z,99250.28
2018-12-08T15:11:34.039Z,99262.06
2018-12-08T15:14:02.133Z,99255.14
2018-12-08T15:16:29.779Z,99255.52
2018-12-08T15:18:57.454Z,99252.41
2018-12-08T15:21:25.125Z,99258.52
2018-12-08T15:23:52.785Z,99250.73
2018-12-08T15:26:20.428Z,99256.34
2018-12-08T15:28:48.147Z,99268.23
2018-12-08T15:31:15.820Z,99258.65
2018-12-08T15:33:43.484Z,99260.38
2018-12-08T15:36:11.151Z,99255.58
2018-12-08T15:38:38.744Z,99266.98
2018-12-08T15:41:06.471Z,99273.60
2018-12-08T15:43:34.164Z,99259.26
2018-12-08T15:46:01.868Z,99264.56
2018-12-08T15:48:29.513Z,99262.42
2018-12-08T15:50:57.161Z,99276.73
2018-12-08T15:53:24.817Z,99257.09
2018-12-08T15:55:52.440Z,99263.73
2018-12-08T15:58:20.093Z,99262.88
2018-12-08T16:00:47.726Z,99265.88
2018-12-08T16:03:15.372Z,99272.80
2018-12-08T16:05:43.119Z,99266.80
2018-12-08T16:08:10.808Z,99266.35
2018-12-08T16:10:38.601Z,99269.35
2018-12-08T16:13:06.237Z,99267.66
2018-12-08T16:15:33.910Z,99269.42
2018-12-08T16:18:01.617Z,99261.69
2018-12-08T16:20:29.317Z,99274.41
2018-12-08T16:22:56.931Z,99266.92
2018-12-08T16:25:24.612Z,99267.09
2018-12-08T16:27:52.409Z,99275.78
2018-12-08T16:30:20.061Z,99266.99
2018-12-08T16:32:47.705Z,99271.41
2018-12-08T16:35:15.386Z,99278.33
2018-12-08T16:37:43.113Z,99277.02
2018-12-08T16:40:10.912Z,99274.78
2018-12-08T16:42:38.539Z,99270.09
2018-12-08T16:45:07.864Z,99266.16
2018-12-08T16:47:35.525Z,99275.71
2018-12-08T16:50:03.550Z,99274.84
2018-12-08T16:52:31.262Z,99262.17
2018-12-08T16:54:58.936Z,99260.38
2018-12-08T16:57:26.576Z,99263.06
2018-12-08T16:59:54.204Z,99269.23
2018-12-08T17:02:21.907Z,99258.69
2018-12-08T17:04:49.568Z,99256.61
2018-12-08T17:07:17.193Z,99258.05
2018-12-08T17:09:44.845Z,99255.69
2018-12-08T17:12:12.494Z,99252.91
2018-12-08T17:14:40.179Z,99257.77
2018-12-08T17:17:07.808Z,99263.38
2018-12-08T17:19:35.474Z,99262.94
2018-12-08T17:22:03.171Z,99262.48
2018-12-08T17:24:30.831Z,99261.18
2018-12-08T17:26:58.495Z,99260.19
2018-12-08T17:29:26.173Z,99258.56
2018-12-08T17:31:53.824Z,99257.25
2018-12-08T17:34:21.487Z,99253.77
2018-12-08T17:36:49.169Z,99257.70
2018-12-08T17:39:16.783Z,99253.70
2018-12-08T17:41:44.535Z,99252.33
2018-12-08T17:44:12.154Z,99244.09
2018-12-08T17:46:39.809Z,99255.39
2018-12-08T17:49:07.442Z,99243.30
2018-12-08T17:51:35.093Z,99246.77
2018-12-08T17:54:03.216Z,99233.62
2018-12-08T17:56:31.041Z,99237.92
2018-12-08T17:59:00.255Z,99234.99
2018-12-08T18:01:27.959Z,99219.97
2018-12-08T18:03:55.664Z,99216.66
2018-12-08T18:06:23.325Z,99223.41
2018-12-08T18:08:50.991Z,99219.41
2018-12-08T18:11:18.673Z,99217.97
2018-12-08T18:13:46.227Z,99219.72
2018-12-08T18:16:13.827Z,99221.34
2018-12-08T18:18:41.405Z,99208.64
2018-12-08T18:21:09.164Z,99211.73
2018-12-08T18:23:36.832Z,99204.33
2018-12-08T18:26:04.527Z,99197.33
2018-12-08T18:28:32.192Z,99196.02
2018-12-08T18:30:59.767Z,99195.16
2018-12-08T18:33:27.394Z,99206.56
2018-12-08T18:35:54.962Z,99208.64
2018-12-08T18:38:22.539Z,99199.09
2018-12-08T18:40:50.313Z,99199.09
2018-12-08T18:43:17.943Z,99193.02
2018-12-08T18:45:45.588Z,99189.86
2018-12-08T18:48:13.216Z,99179.83
2018-12-08T18:50:40.819Z,99182.45
2018-12-08T18:53:09.255Z,99182.86
2018-12-08T18:55:37.075Z,99176.83
2018-12-08T18:58:04.821Z,99175.52
2018-12-08T19:00:32.428Z,99173.28
2018-12-08T19:03:00.053Z,99162.91
2018-12-08T19:05:27.693Z,99165.97
2018-12-08T19:07:55.273Z,99171.45
2018-12-08T19:10:22.893Z,99168.39
2018-12-08T19:12:50.525Z,99173.15
2018-12-08T19:15:18.127Z,99174.08
2018-12-08T19:17:45.738Z,99168.52
2018-12-08T19:20:13.339Z,99165.05
2018-12-08T19:22:40.939Z,99164.98
2018-12-08T19:25:08.511Z,99162.05
2018-12-08T19:27:36.186Z,99163.36
2018-12-08T19:30:04.111Z,99151.56
2018-12-08T19:32:31.682Z,99150.19
2018-12-08T19:34:59.284Z,99147.09
2018-12-08T19:37:26.903Z,99130.93
2018-12-08T19:39:54.490Z,99126.55
2018-12-08T19:42:22.247Z,99117.39
2018-12-08T19:44:49.835Z,99114.70
2018-12-08T19:47:17.419Z,99109.91
2018-12-08T19:49:45.109Z,99096.44
2018-12-08T19:52:12.745Z,99097.20
2018-12-08T19:54:40.357Z,99088.41
2018-12-08T19:57:08.003Z,99076.63
2018-12-08T19:59:35.598Z,99079.17
2018-12-08T20:02:03.269Z,99074.48
2018-12-08T20:04:30.943Z,99063.94
2018-12-08T20:06:58.697Z,99065.25
2018-12-08T20:09:26.388Z,99055.22
2018-12-08T20:11:54.031Z,99049.43
2018-12-08T20:14:21.620Z,99037.98
2018-12-08T20:16:49.211Z,99036.20
2018-12-08T20:19:16.920Z,99024.41
2018-12-08T20:21:44.521Z,99014.55
2018-12-08T20:24:12.142Z,99008.53
2018-12-08T20:26:39.848Z,99007.63
2018-12-08T20:29:07.509Z,99003.39
2018-12-08T20:31:35.147Z,99007.63
2018-12-08T20:34:02.823Z,98995.05
2018-12-08T20:36:30.478Z,98988.88
2018-12-08T20:38:58.299Z,98981.52
2018-12-08T20:41:26.099Z,98977.66
2018-12-08T20:43:53.742Z,98964.56
2018-12-08T20:46:21.380Z,98963.70
2018-12-08T20:48:48.985Z,98951.47
2018-12-08T20:51:16.772Z,98947.54
2018-12-08T20:53:44.393Z,98941.52
2018-12-08T20:56:12.002Z,98935.90
2018-12-08T20:58:39.607Z,98934.66
2018-12-08T21:01:07.190Z,98936.05
2018-12-08T21:03:34.831Z,98927.30
2018-12-08T21:06:02.428Z,98919.03
2018-12-08T21:08:30.072Z,98912.41
2018-12-08T21:10:57.696Z,98904.95
2018-12-08T21:13:25.415Z,98902.72
2018-12-08T21:15:52.983Z,98899.23
2018-12-08T21:18:20.607Z,98904.02
2018-12-08T21:20:48.294Z,98905.64
2018-12-08T21:23:15.950Z,98899.47
2018-12-08T21:25:43.548Z,98900.78
2018-12-08T21:28:11.204Z,98894.30
2018-12-08T21:30:38.793Z,98884.53
2018-12-08T21:33:06.408Z,98881.69
2018-12-08T21:35:34.028Z,98870.66
2018-12-08T21:38:01.599Z,98853.27
2018-12-08T21:40:29.816Z,98835.45
2018-12-08T21:42:57.480Z,98830.33
2018-12-08T21:45:26.198Z,98822.36
2018-12-08T21:47:53.827Z,98817.53
2018-12-08T21:50:21.460Z,98811.44
2018-12-08T21:52:49.077Z,98787.13
2018-12-08T21:55:16.711Z,98781.77
2018-12-08T21:57:44.324Z,98771.30
2018-12-08T22:00:12.011Z,98777.02
2018-12-08T22:02:39.699Z,98769.98
2018-12-08T22:05:07.336Z,98761.39
2018-12-08T22:07:34.929Z,98764.09
2018-12-08T22:10:02.498Z,98760.94
2018-12-08T22:12:30.143Z,98758.69
2018-12-08T22:14:57.735Z,98737.66
2018-12-08T22:17:25.442Z,98725.47
2018-12-08T22:19:53.146Z,98719.86
2018-12-08T22:22:20.785Z,98701.69
2018-12-08T22:24:48.426Z,98697.39
2018-12-08T22:27:16.004Z,98693.84
2018-12-08T22:29:43.617Z,98697.23
2018-12-08T22:32:11.214Z,98687.21
2018-12-08T22:34:38.839Z,98682.83
2018-12-08T22:37:06.443Z,98668.06
2018-12-08T22:39:34.103Z,98670.38
2018-12-08T22:42:01.726Z,98673.45
2018-12-08T22:44:29.409Z,98673.00
2018-12-08T22:46:57.005Z,98669.52
2018-12-08T22:49:24.573Z,98660.44
2018-12-08T22:51:52.164Z,98655.12
2018-12-08T22:54:19.787Z,98649.52
2018-12-08T22:56:47.440Z,98643.34
2018-12-08T22:59:15.034Z,98635.78
2018-12-08T23:01:42.798Z,98632.30
2018-12-08T23:04:10.410Z,98630.84
2018-12-08T23:06:38.049Z,98626.91
2018-12-08T23:09:06.114Z,98616.44
2018-12-08T23:11:33.750Z,98608.66
2018-12-08T23:14:01.484Z,98608.95
2018-12-08T23:16:29.116Z,98594.55
2018-12-08T23:18:56.748Z,98586.53
2018-12-08T23:21:24.410Z,98579.53
2018-12-08T23:23:52.024Z,98573.92
2018-12-08T23:26:19.697Z,98570.81
2018-12-08T23:28:47.346Z,98572.61
2018-12-08T23:31:15.018Z,98559.03
2018-12-08T23:33:42.738Z,98551.55
2018-12-08T23:36:10.358Z,98548.93
2018-12-08T23:38:37.963Z,98538.00
2018-12-08T23:41:05.562Z,98531.38
2018-12-08T23:43:33.331Z,98531.00
2018-12-08T23:46:00.986Z,98525.85
2018-12-08T23:48:28.610Z,98527.45
2018-12-08T23:50:56.256Z,98527.08
2018-12-08T23:53:23.881Z,98524.26
2018-12-08T23:55:51.503Z,98529.78
2018-12-08T23:58:19.273Z,98521.55
